Loon Lake, Canada
Current Conditions -  °F | °C
As of 6:00 PM on Friday 19 Dec 2014 (Local Time) from CYLJ Reporting Station
Haze Haze  
Wind Chill:   Ceiling: 1000
Heat Index: 10°   Visibility: 1mi
Dew Point:   Wind: 6mph
Humidity: 85%   Direction: 60°ENE
Pressure: 29.84"   Gusts: NA
Location:  54.03°N, 109.16°W
Report Text: CYLJ 200000Z 06005KT 1SM BR BKN010 M12/M14 A2984 RMK SC6 SN COV/MEDIUM PACK LAST OBS/NXT 20 1200 UTC SLP147
Loading
Personal Weather Stations






























Interactive Weather Map New forecast layout! Learn more

10-Day Weather Forecast

Advertisements
Track Severe Weather on mobile